createdAt,value
2018-12-13T00:01:04.759Z,68.80
2018-12-13T00:03:33.183Z,67.80
2018-12-13T00:06:02.171Z,67.60
2018-12-13T00:08:30.623Z,67.50
2018-12-13T00:10:58.495Z,66.70
2018-12-13T00:13:27.129Z,66.70
2018-12-13T00:15:54.243Z,66.20
2018-12-13T00:18:22.948Z,65.90
2018-12-13T00:20:51.992Z,65.90
2018-12-13T00:23:20.949Z,66.70
2018-12-13T00:25:48.491Z,66.70
2018-12-13T00:28:15.487Z,66.80
2018-12-13T00:30:44.708Z,66.70
2018-12-13T00:33:11.731Z,67.10
2018-12-13T00:38:12.723Z,66.80
2018-12-13T00:40:41.406Z,67.80
2018-12-13T00:43:12.149Z,67.90
2018-12-13T00:48:18.793Z,68.90
2018-12-13T00:50:46.259Z,69.40
2018-12-13T00:53:14.285Z,70.00
2018-12-13T00:55:42.551Z,70.90
2018-12-13T00:58:11.039Z,71.20
2018-12-13T01:03:16.521Z,70.30
2018-12-13T01:05:45.640Z,69.80
2018-12-13T01:08:13.936Z,68.90
2018-12-13T01:10:46.243Z,68.20
2018-12-13T01:13:17.760Z,67.70
2018-12-13T01:15:45.623Z,68.00
2018-12-13T01:18:14.314Z,67.90
2018-12-13T01:23:22.262Z,67.90
2018-12-13T01:25:50.503Z,67.30
2018-12-13T01:28:17.761Z,67.90
2018-12-13T01:33:17.615Z,68.40
2018-12-13T01:35:45.597Z,68.90
2018-12-13T01:38:12.854Z,68.00
2018-12-13T01:40:39.343Z,67.70
2018-12-13T01:43:06.468Z,67.90
2018-12-13T01:45:34.379Z,68.40
2018-12-13T01:48:01.642Z,68.30
2018-12-13T01:50:28.668Z,69.40
2018-12-13T01:52:55.348Z,70.20
2018-12-13T01:55:22.496Z,70.90
2018-12-13T01:57:50.696Z,70.50
2018-12-13T02:00:17.870Z,70.20
2018-12-13T02:02:45.039Z,69.30
2018-12-13T02:05:14.058Z,68.40
2018-12-13T02:07:42.830Z,69.00
2018-12-13T02:10:12.103Z,70.10
2018-12-13T02:12:39.485Z,70.90
2018-12-13T02:15:06.721Z,70.80
2018-12-13T02:17:34.467Z,70.40
2018-12-13T02:20:02.313Z,69.80
2018-12-13T02:22:28.743Z,69.20
2018-12-13T02:24:55.177Z,68.70
2018-12-13T02:27:21.606Z,68.40
2018-12-13T02:29:48.056Z,68.40
2018-12-13T02:32:14.498Z,68.40
2018-12-13T02:34:41.082Z,68.00
2018-12-13T02:37:07.514Z,68.90
2018-12-13T02:39:33.955Z,68.40
2018-12-13T02:42:00.400Z,68.80
2018-12-13T02:44:27.068Z,69.40
2018-12-13T02:46:53.537Z,69.90
2018-12-13T02:49:19.968Z,69.80
2018-12-13T02:51:46.393Z,69.10
2018-12-13T02:54:12.844Z,69.10
2018-12-13T02:56:39.283Z,69.50
2018-12-13T02:59:05.736Z,70.10
2018-12-13T03:01:32.200Z,69.30
2018-12-13T03:03:58.627Z,68.40
2018-12-13T03:09:17.236Z,68.00
2018-12-13T03:11:43.694Z,67.40
2018-12-13T03:14:11.187Z,67.40
2018-12-13T03:16:37.646Z,68.30
2018-12-13T03:19:04.089Z,68.90
2018-12-13T03:21:30.530Z,68.50
2018-12-13T03:23:57.035Z,68.60
2018-12-13T03:26:23.706Z,69.30
2018-12-13T03:28:50.130Z,69.40
2018-12-13T03:31:16.631Z,70.50
2018-12-13T03:33:43.504Z,70.00
2018-12-13T03:36:10.649Z,70.10
2018-12-13T03:38:37.495Z,68.90
2018-12-13T03:41:03.952Z,68.80
2018-12-13T03:43:31.463Z,69.20
2018-12-13T03:45:58.551Z,70.20
2018-12-13T03:48:26.233Z,70.30
2018-12-13T03:50:53.227Z,69.70
2018-12-13T03:53:21.218Z,69.50
2018-12-13T03:55:48.263Z,70.00
2018-12-13T03:58:15.348Z,69.80
2018-12-13T04:00:43.296Z,71.60
2018-12-13T04:03:10.407Z,72.10
2018-12-13T04:05:36.861Z,70.90
2018-12-13T04:08:04.310Z,70.20
2018-12-13T04:10:30.746Z,69.80
2018-12-13T04:12:58.298Z,69.50
2018-12-13T04:15:26.048Z,70.30
2018-12-13T04:17:53.092Z,69.40
2018-12-13T04:20:20.995Z,69.60
2018-12-13T04:22:47.509Z,69.80
2018-12-13T04:25:14.186Z,69.20
2018-12-13T04:27:40.683Z,69.10
2018-12-13T04:30:07.125Z,69.50
2018-12-13T04:32:33.600Z,69.20
2018-12-13T04:35:00.050Z,70.10
2018-12-13T04:37:26.503Z,71.00
2018-12-13T04:39:53.002Z,71.90
2018-12-13T04:42:20.635Z,72.00
2018-12-13T04:44:47.095Z,71.10
2018-12-13T04:47:13.562Z,71.90
2018-12-13T04:52:12.583Z,71.70
2018-12-13T04:54:39.574Z,71.10
2018-12-13T04:57:06.021Z,71.60
2018-12-13T04:59:32.584Z,71.80
2018-12-13T05:01:59.024Z,71.70
2018-12-13T05:04:27.153Z,72.80
2018-12-13T05:06:53.622Z,72.40
2018-12-13T05:09:20.095Z,72.80
2018-12-13T05:11:47.415Z,74.20
2018-12-13T05:14:14.013Z,72.80
2018-12-13T05:16:40.659Z,72.90
2018-12-13T05:19:07.210Z,74.40
2018-12-13T05:21:33.703Z,73.30
2018-12-13T05:24:00.196Z,73.20
2018-12-13T05:26:26.668Z,72.10
2018-12-13T05:28:53.145Z,71.50
2018-12-13T05:33:51.175Z,70.80
2018-12-13T05:36:17.689Z,70.10
2018-12-13T05:38:44.147Z,70.30
2018-12-13T05:41:10.604Z,70.50
2018-12-13T05:43:37.042Z,70.10
2018-12-13T05:46:03.490Z,70.00
2018-12-13T05:48:29.922Z,70.10
2018-12-13T05:50:56.352Z,70.10
2018-12-13T05:53:22.832Z,70.50
2018-12-13T05:55:49.311Z,70.50
2018-12-13T05:58:15.767Z,70.80
2018-12-13T06:00:42.200Z,71.30
2018-12-13T06:03:09.743Z,71.40
2018-12-13T06:05:36.171Z,71.80
2018-12-13T06:08:02.636Z,70.90
2018-12-13T06:10:29.079Z,71.10
2018-12-13T06:12:55.506Z,71.50
2018-12-13T06:15:22.017Z,71.50
2018-12-13T06:17:48.468Z,71.60
2018-12-13T06:20:14.931Z,71.60
2018-12-13T06:22:41.370Z,72.30
2018-12-13T06:25:07.831Z,72.30
2018-12-13T06:27:34.281Z,72.90
2018-12-13T06:30:07.237Z,73.90
2018-12-13T06:32:29.508Z,74.00
2018-12-13T06:34:56.497Z,73.40
2018-12-13T06:37:23.177Z,72.80
2018-12-13T06:39:49.652Z,73.60
2018-12-13T06:42:16.136Z,74.00
2018-12-13T06:44:42.622Z,73.50
2018-12-13T06:47:10.104Z,73.30
2018-12-13T06:49:36.569Z,72.30
2018-12-13T06:52:03.344Z,72.30
2018-12-13T06:54:29.799Z,72.80
2018-12-13T06:56:56.245Z,73.50
2018-12-13T06:59:22.719Z,73.70
2018-12-13T07:01:49.180Z,75.70
2018-12-13T07:04:18.933Z,75.20
2018-12-13T07:06:45.375Z,74.20
2018-12-13T07:09:11.848Z,74.00
2018-12-13T07:11:38.274Z,75.40
2018-12-13T07:16:38.434Z,76.10
2018-12-13T07:19:04.891Z,75.60
2018-12-13T07:21:31.311Z,75.40
2018-12-13T07:23:57.746Z,75.80
2018-12-13T07:26:24.225Z,77.00
2018-12-13T07:28:50.656Z,77.30
2018-12-13T07:31:17.078Z,77.30
2018-12-13T07:33:47.643Z,76.40
2018-12-13T07:36:14.090Z,76.30
2018-12-13T07:38:40.542Z,75.90
2018-12-13T07:41:07.036Z,76.30
2018-12-13T07:43:33.486Z,75.60
2018-12-13T07:45:59.923Z,78.30
2018-12-13T07:48:26.374Z,79.50
2018-12-13T07:50:52.804Z,80.40
2018-12-13T07:53:19.228Z,79.70
2018-12-13T07:55:45.685Z,78.50
2018-12-13T07:58:12.122Z,80.00
2018-12-13T08:00:38.592Z,80.30
2018-12-13T08:03:05.074Z,81.80
2018-12-13T08:05:31.511Z,80.70
2018-12-13T08:07:57.939Z,79.90
2018-12-13T08:10:24.429Z,78.90
2018-12-13T08:12:50.898Z,78.80
2018-12-13T08:15:17.339Z,77.60
2018-12-13T08:25:18.727Z,80.20
2018-12-13T08:27:45.165Z,80.80
2018-12-13T08:30:11.635Z,80.50
2018-12-13T08:32:38.084Z,78.60
2018-12-13T08:35:08.839Z,78.00
2018-12-13T08:37:35.292Z,79.80
2018-12-13T08:40:01.750Z,81.40
2018-12-13T08:42:28.188Z,83.00
2018-12-13T08:44:56.637Z,83.40
2018-12-13T08:47:23.254Z,82.30
2018-12-13T08:49:49.720Z,80.80
2018-12-13T08:52:16.181Z,79.70
2018-12-13T08:54:46.942Z,79.90
2018-12-13T08:57:13.389Z,78.60
2018-12-13T08:59:39.867Z,79.00
2018-12-13T09:02:06.307Z,78.10
2018-12-13T09:04:33.799Z,79.80
2018-12-13T09:07:00.902Z,78.80
2018-12-13T09:09:27.349Z,79.70
2018-12-13T09:11:53.774Z,80.40
2018-12-13T09:14:20.223Z,81.20
2018-12-13T09:16:46.711Z,79.00
2018-12-13T09:19:13.183Z,77.80
2018-12-13T09:21:39.656Z,78.40
2018-12-13T09:24:06.385Z,77.30
2018-12-13T09:26:32.835Z,78.30
2018-12-13T09:28:59.276Z,79.50
2018-12-13T09:31:25.856Z,79.70
2018-12-13T09:33:52.293Z,80.30
2018-12-13T09:36:18.728Z,80.90
2018-12-13T09:38:45.167Z,79.30
2018-12-13T09:41:11.596Z,77.90
2018-12-13T09:43:38.034Z,77.60
2018-12-13T09:46:04.517Z,77.10
2018-12-13T09:48:30.950Z,76.40
2018-12-13T09:50:57.386Z,76.10
2018-12-13T09:53:23.835Z,78.20
2018-12-13T09:55:50.298Z,77.80
2018-12-13T09:58:16.730Z,78.10
2018-12-13T10:00:43.165Z,76.40
2018-12-13T10:03:09.608Z,78.20
2018-12-13T10:05:39.942Z,77.40
2018-12-13T10:08:06.439Z,76.40
2018-12-13T10:10:32.884Z,79.20
2018-12-13T10:12:59.301Z,79.30
2018-12-13T10:15:32.018Z,78.90
2018-12-13T10:17:56.366Z,79.00
2018-12-13T10:20:22.791Z,78.00
2018-12-13T10:22:49.240Z,77.40
2018-12-13T10:25:19.421Z,77.00
2018-12-13T10:27:45.868Z,77.00
2018-12-13T10:30:12.348Z,78.00
2018-12-13T10:32:38.784Z,78.40
2018-12-13T10:35:11.140Z,77.60
2018-12-13T10:37:33.698Z,78.80
2018-12-13T10:40:00.169Z,80.40
2018-12-13T10:42:26.644Z,78.40
2018-12-13T10:44:53.076Z,77.50
2018-12-13T10:47:19.536Z,76.70
2018-12-13T10:49:45.954Z,75.60
2018-12-13T10:52:12.406Z,78.10
2018-12-13T10:54:38.858Z,77.80
2018-12-13T10:57:05.287Z,79.10
2018-12-13T10:59:31.749Z,78.00
2018-12-13T11:01:58.181Z,79.20
2018-12-13T11:04:24.606Z,78.80
2018-12-13T11:06:52.136Z,78.50
2018-12-13T11:09:18.562Z,78.40
2018-12-13T11:11:44.996Z,80.50
2018-12-13T11:14:11.460Z,80.90
2018-12-13T11:19:10.574Z,77.70
2018-12-13T11:21:37.027Z,79.30
2018-12-13T11:24:03.475Z,80.60
2018-12-13T11:26:30.091Z,81.30
2018-12-13T11:28:56.561Z,78.90
2018-12-13T11:31:22.980Z,77.40
2018-12-13T11:33:49.442Z,76.90
2018-12-13T17:48:24.839Z,68.70
2018-12-13T17:50:51.281Z,67.70
2018-12-13T17:53:17.774Z,68.10
2018-12-13T17:55:44.231Z,68.20
2018-12-13T17:58:10.685Z,68.80
2018-12-13T18:00:37.132Z,68.00
2018-12-13T18:03:03.579Z,69.00
2018-12-13T18:05:34.895Z,67.80
2018-12-13T18:08:02.031Z,69.00
2018-12-13T18:13:04.078Z,68.10
2018-12-13T18:18:03.787Z,68.20
2018-12-13T18:20:32.210Z,67.70
2018-12-13T18:22:58.929Z,67.60
2018-12-13T18:25:26.171Z,69.10
2018-12-13T18:27:53.579Z,68.70
2018-12-13T18:30:21.206Z,70.40
2018-12-13T18:32:49.814Z,69.10
2018-12-13T18:35:17.805Z,68.30
2018-12-13T18:37:44.282Z,68.10
2018-12-13T18:40:11.778Z,68.30
2018-12-13T18:42:39.560Z,68.10
2018-12-13T18:45:07.816Z,68.20
2018-12-13T18:47:35.988Z,68.60
2018-12-13T18:50:04.453Z,70.60
2018-12-13T18:52:30.927Z,70.60
2018-12-13T18:54:58.109Z,70.10
2018-12-13T18:57:26.145Z,70.50
2018-12-13T18:59:52.672Z,70.20
2018-12-13T19:02:20.657Z,70.60
2018-12-13T19:04:48.857Z,70.10
2018-12-13T19:07:16.603Z,70.40
2018-12-13T19:09:50.103Z,70.20
2018-12-13T19:12:17.088Z,70.00
2018-12-13T19:14:46.160Z,69.00
2018-12-13T19:17:14.207Z,70.40
2018-12-13T19:19:42.426Z,69.60
2018-12-13T19:22:09.626Z,69.40
2018-12-13T19:24:39.498Z,69.50
2018-12-13T19:27:06.715Z,71.20
2018-12-13T19:29:35.045Z,70.20
2018-12-13T19:32:03.119Z,71.00
2018-12-13T19:34:33.319Z,70.70
2018-12-13T19:37:02.795Z,70.20
2018-12-13T19:39:31.411Z,70.20
2018-12-13T19:41:59.360Z,69.70
2018-12-13T19:44:28.982Z,70.90
2018-12-13T19:46:56.717Z,70.80
2018-12-13T19:49:25.340Z,71.70
2018-12-13T19:51:52.467Z,72.50
2018-12-13T19:54:19.746Z,72.00
2018-12-13T19:56:46.208Z,72.80
2018-12-13T19:59:12.973Z,73.00
2018-12-13T20:01:41.203Z,72.80
2018-12-13T20:04:07.868Z,73.60
2018-12-13T20:06:36.570Z,73.70
2018-12-13T20:09:04.881Z,73.10
2018-12-13T20:11:33.540Z,73.30
2018-12-13T20:14:00.925Z,74.50
2018-12-13T20:16:27.404Z,73.60
2018-12-13T20:18:53.928Z,72.70
2018-12-13T20:21:21.523Z,71.60
2018-12-13T20:23:49.735Z,71.10
2018-12-13T20:26:18.496Z,69.70
2018-12-13T20:31:43.808Z,71.00
2018-12-13T20:34:11.533Z,70.30
2018-12-13T20:36:40.648Z,70.20
2018-12-13T20:39:08.708Z,70.20
2018-12-13T20:41:37.931Z,70.40
2018-12-13T20:44:05.035Z,70.00
2018-12-13T20:46:35.908Z,70.00
2018-12-13T20:49:04.468Z,69.60
2018-12-13T20:51:32.822Z,69.60
2018-12-13T20:53:59.962Z,69.40
2018-12-13T20:56:28.013Z,69.80
2018-12-13T21:01:29.082Z,70.10
2018-12-13T21:03:56.625Z,70.40
2018-12-13T21:06:24.720Z,70.20
2018-12-13T21:08:51.957Z,69.90
2018-12-13T21:11:19.672Z,69.10
2018-12-13T21:13:48.959Z,69.70
2018-12-13T21:16:16.239Z,69.60
2018-12-13T21:18:42.754Z,70.20
2018-12-13T21:21:11.097Z,70.20
2018-12-13T21:23:37.966Z,70.10
2018-12-13T21:26:07.818Z,69.40
2018-12-13T21:49:58.402Z,70.00
2018-12-13T21:52:26.438Z,70.90
2018-12-13T21:54:54.299Z,70.80
2018-12-13T21:57:22.811Z,70.60
2018-12-13T21:59:51.460Z,69.50
2018-12-13T22:02:21.850Z,69.30
2018-12-13T22:04:51.276Z,69.00
2018-12-13T22:07:20.910Z,69.00
2018-12-13T22:09:49.321Z,68.40
2018-12-13T22:12:17.768Z,68.30
2018-12-13T22:14:46.273Z,69.80
2018-12-13T22:17:14.898Z,69.30
2018-12-13T22:19:43.199Z,69.70
2018-12-13T22:22:11.693Z,69.50
2018-12-13T22:24:40.196Z,70.20
2018-12-13T22:27:08.671Z,70.10
2018-12-13T22:29:37.163Z,70.20
2018-12-13T22:32:05.628Z,70.60
2018-12-13T22:34:34.084Z,69.70
2018-12-13T22:37:01.398Z,69.90
2018-12-13T22:39:28.017Z,69.60
2018-12-13T22:41:58.608Z,70.60
2018-12-13T22:44:27.064Z,72.20
2018-12-13T22:46:57.522Z,73.40
2018-12-13T22:49:25.987Z,72.90
2018-12-13T22:51:55.494Z,72.90
2018-12-13T22:54:27.038Z,72.60
2018-12-13T22:56:55.514Z,72.80
2018-12-13T22:59:23.956Z,72.00
2018-12-13T23:01:52.483Z,71.50
2018-12-13T23:06:53.503Z,70.50
2018-12-13T23:09:20.995Z,69.70
2018-12-13T23:11:49.505Z,68.70
2018-12-13T23:14:17.507Z,69.50
2018-12-13T23:16:45.353Z,69.60
2018-12-13T23:19:11.825Z,69.40
2018-12-13T23:21:38.306Z,69.20
2018-12-13T23:24:05.491Z,69.20
2018-12-13T23:26:32.003Z,69.00
2018-12-13T23:28:59.560Z,69.30
2018-12-13T23:31:28.100Z,69.50
2018-12-13T23:33:56.538Z,70.20
2018-12-13T23:36:26.017Z,69.80
2018-12-13T23:38:53.528Z,69.80
2018-12-13T23:41:21.997Z,69.10
2018-12-13T23:43:50.495Z,68.50
2018-12-13T23:46:18.976Z,69.60
2018-12-13T23:48:46.379Z,68.80
2018-12-13T23:51:13.873Z,69.20
2018-12-13T23:53:41.310Z,69.40
2018-12-13T23:56:08.773Z,68.30
2018-12-13T23:58:36.198Z,67.90
